createdAt,value
2023-04-20T00:02:06.077Z,15.15
2023-04-20T00:04:32.586Z,14.65
2023-04-20T00:06:59.325Z,14.10
2023-04-20T00:09:25.708Z,14.70
2023-04-20T00:11:52.213Z,13.80
2023-04-20T00:14:18.617Z,13.80
2023-04-20T00:16:45.293Z,15.07
2023-04-20T00:19:11.789Z,14.98
2023-04-20T00:21:38.368Z,13.68
2023-04-20T00:24:04.814Z,14.73
2023-04-20T00:26:31.731Z,14.27
2023-04-20T00:28:58.105Z,13.57
2023-04-20T00:31:24.573Z,13.95
2023-04-20T00:33:51.562Z,14.68
2023-04-20T00:36:17.956Z,14.18
2023-04-20T00:38:44.434Z,13.80
2023-04-20T00:41:11.140Z,14.10
2023-04-20T00:43:37.899Z,13.27
2023-04-20T00:46:04.284Z,13.63
2023-04-20T00:48:30.825Z,13.70
2023-04-20T00:50:57.145Z,12.88
2023-04-20T00:53:23.552Z,14.40
2023-04-20T00:55:50.124Z,14.32
2023-04-20T00:58:16.659Z,14.63
2023-04-20T01:00:43.045Z,13.77
2023-04-20T01:03:10.379Z,14.27
2023-04-20T01:05:36.881Z,15.38
2023-04-20T01:08:03.553Z,14.63
2023-04-20T01:10:29.895Z,14.43
2023-04-20T01:12:58.105Z,12.90
2023-04-20T01:15:25.502Z,14.38
2023-04-20T01:17:52.547Z,13.75
2023-04-20T01:20:19.327Z,14.10
2023-04-20T01:22:45.703Z,14.18
2023-04-20T01:25:12.393Z,13.60
2023-04-20T01:27:39.459Z,13.95
2023-04-20T01:30:05.814Z,13.60
2023-04-20T01:32:32.523Z,14.10
2023-04-20T01:34:58.972Z,13.95
2023-04-20T01:37:25.328Z,13.30
2023-04-20T01:39:51.766Z,14.38
2023-04-20T01:42:18.373Z,14.85
2023-04-20T01:44:44.809Z,14.65
2023-04-20T01:47:11.437Z,13.55
2023-04-20T01:49:38.082Z,14.50
2023-04-20T01:52:04.504Z,13.90
2023-04-20T01:54:31.222Z,13.55
2023-04-20T01:56:57.903Z,14.63
2023-04-20T01:59:24.204Z,13.13
2023-04-20T02:01:50.689Z,13.55
2023-04-20T02:04:17.604Z,13.48
2023-04-20T02:06:44.159Z,14.55
2023-04-20T02:09:10.896Z,13.27
2023-04-20T02:11:37.390Z,13.20
2023-04-20T02:14:03.715Z,13.65
2023-04-20T02:16:30.135Z,13.68
2023-04-20T02:18:56.520Z,13.50
2023-04-20T02:21:22.843Z,14.48
2023-04-20T02:23:49.388Z,14.23
2023-04-20T02:26:15.772Z,13.73
2023-04-20T02:28:42.279Z,13.77
2023-04-20T02:31:08.756Z,13.15
2023-04-20T02:33:35.312Z,12.88
2023-04-20T02:36:01.707Z,13.55
2023-04-20T02:38:28.081Z,13.48
2023-04-20T02:40:54.443Z,13.13
2023-04-20T02:43:21.408Z,13.52
2023-04-20T02:45:48.056Z,13.88
2023-04-20T02:48:14.428Z,14.00
2023-04-20T02:50:40.823Z,14.10
2023-04-20T02:53:07.585Z,14.65
2023-04-20T02:55:34.153Z,13.52
2023-04-20T02:58:00.570Z,12.55
2023-04-20T03:00:27.332Z,13.63
2023-04-20T03:02:53.807Z,12.93
2023-04-20T03:05:20.199Z,13.45
2023-04-20T03:07:46.600Z,12.85
2023-04-20T03:10:13.241Z,12.52
2023-04-20T03:12:39.550Z,12.00
2023-04-20T03:15:06.072Z,13.95
2023-04-20T03:17:32.763Z,12.82
2023-04-20T03:19:59.300Z,12.48
2023-04-20T03:22:25.647Z,13.18
2023-04-20T03:24:53.359Z,13.00
2023-04-20T03:27:20.031Z,12.13
2023-04-20T03:29:46.396Z,12.68
2023-04-20T03:32:12.769Z,13.45
2023-04-20T03:34:39.402Z,13.27
2023-04-20T03:37:05.712Z,12.73
2023-04-20T03:39:32.283Z,13.20
2023-04-20T03:41:58.628Z,12.77
2023-04-20T03:44:25.089Z,13.40
2023-04-20T03:46:51.674Z,12.38
2023-04-20T03:49:18.175Z,12.90
2023-04-20T03:51:44.822Z,12.50
2023-04-20T03:54:11.249Z,13.02
2023-04-20T03:56:37.643Z,13.35
2023-04-20T03:59:04.000Z,14.05
2023-04-20T04:01:30.416Z,13.00
2023-04-20T04:03:57.170Z,13.48
2023-04-20T04:06:23.685Z,13.32
2023-04-20T04:08:50.220Z,14.10
2023-04-20T04:11:17.035Z,12.55
2023-04-20T04:13:43.577Z,14.57
2023-04-20T04:16:10.191Z,13.55
2023-04-20T04:18:36.853Z,13.80
2023-04-20T04:21:03.246Z,12.38
2023-04-20T04:23:29.609Z,13.35
2023-04-20T04:25:55.948Z,13.70
2023-04-20T04:28:22.303Z,14.35
2023-04-20T04:30:48.592Z,13.30
2023-04-20T04:33:14.917Z,13.90
2023-04-20T04:35:41.320Z,13.98
2023-04-20T04:38:08.052Z,13.48
2023-04-20T04:40:34.451Z,14.32
2023-04-20T04:43:00.739Z,14.02
2023-04-20T04:45:27.250Z,13.73
2023-04-20T04:47:53.747Z,14.75
2023-04-20T04:50:20.403Z,13.95
2023-04-20T04:52:46.803Z,14.20
2023-04-20T04:55:15.019Z,14.30
2023-04-20T04:57:42.802Z,13.75
2023-04-20T05:00:09.164Z,13.73
2023-04-20T05:02:36.342Z,13.57
2023-04-20T05:05:02.933Z,14.45
2023-04-20T05:07:29.298Z,14.70
2023-04-20T05:09:55.944Z,13.77
2023-04-20T05:12:22.395Z,15.15
2023-04-20T05:14:48.792Z,14.98
2023-04-20T05:17:15.653Z,14.70
2023-04-20T05:19:42.034Z,15.18
2023-04-20T05:22:08.457Z,14.07
2023-04-20T05:24:34.836Z,14.02
2023-04-20T05:27:01.890Z,14.88
2023-04-20T05:29:28.384Z,15.02
2023-04-20T05:31:54.947Z,15.02
2023-04-20T05:34:21.596Z,14.95
2023-04-20T05:36:48.309Z,15.10
2023-04-20T05:39:14.844Z,14.70
2023-04-20T05:41:41.178Z,14.75
2023-04-20T05:44:07.493Z,14.68
2023-04-20T05:46:34.112Z,14.98
2023-04-20T05:49:00.591Z,15.60
2023-04-20T05:51:27.081Z,15.48
2023-04-20T05:53:53.647Z,16.05
2023-04-20T05:56:20.135Z,15.60
2023-04-20T05:58:46.515Z,14.98
2023-04-20T06:01:13.140Z,15.38
2023-04-20T06:03:39.608Z,15.68
2023-04-20T06:06:06.144Z,15.90
2023-04-20T06:08:32.665Z,15.73
2023-04-20T06:10:59.382Z,16.52
2023-04-20T06:13:25.749Z,14.73
2023-04-20T06:15:52.399Z,16.60
2023-04-20T06:18:19.354Z,16.00
2023-04-20T06:20:45.757Z,15.55
2023-04-20T06:23:12.247Z,14.63
2023-04-20T06:25:38.612Z,16.00
2023-04-20T06:28:05.051Z,16.50
2023-04-20T06:30:31.423Z,15.43
2023-04-20T06:32:59.245Z,17.00
2023-04-20T06:35:25.832Z,16.05
2023-04-20T06:37:52.192Z,15.82
2023-04-20T06:40:18.526Z,16.48
2023-04-20T06:42:45.109Z,16.75
2023-04-20T06:45:11.418Z,16.17
2023-04-20T06:47:38.238Z,17.52
2023-04-20T06:50:04.769Z,17.08
2023-04-20T06:52:31.504Z,17.27
2023-04-20T06:54:57.899Z,16.70
2023-04-20T06:57:24.270Z,17.05
2023-04-20T06:59:50.640Z,16.40
2023-04-20T07:02:17.515Z,18.77
2023-04-20T07:04:44.327Z,17.52
2023-04-20T07:07:10.809Z,17.90
2023-04-20T07:09:37.120Z,17.45
2023-04-20T07:12:03.472Z,17.73
2023-04-20T07:14:29.851Z,17.98
2023-04-20T07:16:56.278Z,19.33
2023-04-20T07:19:23.240Z,18.35
2023-04-20T07:21:49.671Z,17.55
2023-04-20T07:24:16.163Z,17.60
2023-04-20T07:26:42.738Z,18.63
2023-04-20T07:29:09.201Z,18.85
2023-04-20T07:31:35.794Z,17.45
2023-04-20T07:34:02.218Z,18.23
2023-04-20T07:36:29.052Z,18.67
2023-04-20T07:38:55.450Z,18.45
2023-04-20T07:41:21.897Z,18.45
2023-04-20T07:43:48.272Z,18.52
2023-04-20T07:46:14.659Z,18.00
2023-04-20T07:48:41.186Z,17.65
2023-04-20T07:51:07.740Z,18.98
2023-04-20T07:53:34.226Z,22.13
2023-04-20T07:56:00.564Z,20.35
2023-04-20T07:58:27.033Z,19.88
2023-04-20T08:00:53.485Z,20.70
2023-04-20T08:03:20.048Z,20.88
2023-04-20T08:05:46.631Z,19.98
2023-04-20T08:08:13.147Z,19.20
2023-04-20T08:10:39.599Z,19.58
2023-04-20T08:13:06.174Z,20.30
2023-04-20T08:15:33.109Z,20.05
2023-04-20T08:17:59.688Z,19.63
2023-04-20T08:20:26.230Z,21.20
2023-04-20T08:22:52.826Z,19.40
2023-04-20T08:25:19.589Z,19.33
2023-04-20T08:27:46.124Z,21.10
2023-04-20T08:30:12.488Z,20.55
2023-04-20T08:32:39.356Z,20.92
2023-04-20T08:35:06.181Z,22.13
2023-04-20T08:37:33.150Z,20.30
2023-04-20T08:39:59.634Z,21.20
2023-04-20T08:42:26.110Z,21.45
2023-04-20T08:44:52.601Z,21.42
2023-04-20T08:47:19.097Z,22.45
2023-04-20T08:49:45.499Z,20.35
2023-04-20T08:52:12.203Z,22.00
2023-04-20T08:54:45.873Z,22.13
2023-04-20T08:57:15.948Z,23.08
2023-04-20T08:59:42.629Z,22.67
2023-04-20T09:02:09.048Z,22.48
2023-04-20T09:04:35.747Z,23.67
2023-04-20T09:07:02.195Z,22.42
2023-04-20T09:09:28.592Z,22.67
2023-04-20T09:11:55.175Z,21.65
2023-04-20T09:14:21.614Z,22.92
2023-04-20T09:16:48.400Z,23.08
2023-04-20T09:19:14.852Z,22.90
2023-04-20T09:21:41.490Z,24.30
2023-04-20T09:24:07.870Z,23.90
2023-04-20T09:26:34.270Z,23.00
2023-04-20T09:29:00.737Z,24.00
2023-04-20T09:31:27.163Z,24.15
2023-04-20T09:33:53.788Z,24.08
2023-04-20T09:36:20.320Z,24.58
2023-04-20T09:38:46.680Z,23.80
2023-04-20T09:41:13.383Z,25.13
2023-04-20T09:43:40.046Z,24.98
2023-04-20T09:46:06.546Z,24.80
2023-04-20T09:48:32.961Z,24.20
2023-04-20T09:50:59.323Z,23.70
2023-04-20T09:53:25.694Z,22.95
2023-04-20T09:55:52.218Z,23.63
2023-04-20T09:58:18.698Z,25.10
2023-04-20T10:00:45.343Z,25.30
2023-04-20T10:03:11.897Z,25.20
2023-04-20T10:05:38.293Z,26.45
2023-04-20T10:08:04.865Z,27.38
2023-04-20T10:10:31.331Z,26.52
2023-04-20T10:12:57.619Z,27.08
2023-04-20T10:15:24.065Z,26.73
2023-04-20T10:17:50.945Z,26.50
2023-04-20T10:20:17.292Z,26.02
2023-04-20T10:22:43.986Z,36.45
2023-04-20T10:25:10.331Z,58.42
2023-04-20T10:27:37.079Z,58.47
2023-04-20T10:30:03.455Z,49.38
2023-04-20T10:32:29.927Z,48.15
2023-04-20T10:34:56.360Z,48.50
2023-04-20T10:37:22.701Z,50.03
2023-04-20T10:39:49.107Z,47.03
2023-04-20T10:42:17.536Z,46.38
2023-04-20T10:44:44.622Z,46.03
2023-04-20T10:47:11.663Z,44.17
2023-04-20T10:49:38.024Z,41.83
2023-04-20T10:52:04.474Z,43.95
2023-04-20T10:54:30.828Z,41.78
2023-04-20T10:56:57.300Z,41.63
2023-04-20T10:59:23.684Z,42.03
2023-04-20T11:01:50.466Z,42.70
2023-04-20T11:04:18.790Z,41.45
2023-04-20T11:06:46.083Z,41.25
2023-04-20T11:09:12.585Z,40.67
2023-04-20T11:11:39.046Z,40.10
2023-04-20T11:14:05.667Z,39.65
2023-04-20T11:16:44.189Z,39.80
2023-04-20T11:19:15.954Z,36.03
2023-04-20T11:21:42.685Z,37.60
2023-04-20T11:24:09.261Z,33.85
2023-04-20T11:26:35.741Z,33.58
2023-04-20T11:29:02.610Z,32.75
2023-04-20T11:31:29.016Z,30.70
2023-04-20T11:33:55.399Z,30.42
2023-04-20T11:36:22.004Z,30.70
2023-04-20T11:38:48.360Z,30.10
2023-04-20T11:41:14.833Z,28.88
2023-04-20T11:43:41.214Z,29.10
2023-04-20T11:46:07.982Z,29.70
2023-04-20T11:48:34.434Z,28.50
2023-04-20T11:51:00.949Z,30.60
2023-04-20T11:53:27.814Z,30.48
2023-04-20T11:55:54.276Z,32.00
2023-04-20T11:58:20.987Z,28.75
2023-04-20T12:00:47.388Z,30.05
2023-04-20T12:03:13.978Z,28.30
2023-04-20T12:05:40.498Z,27.27
2023-04-20T12:08:07.121Z,28.13
2023-04-20T12:10:33.571Z,28.13
2023-04-20T12:13:00.105Z,25.63
2023-04-20T12:15:26.761Z,28.58
2023-04-20T12:17:53.215Z,26.40
2023-04-20T12:20:19.549Z,26.23
2023-04-20T12:22:45.963Z,25.77
2023-04-20T12:25:12.626Z,25.80
2023-04-20T12:27:39.067Z,25.40
2023-04-20T12:30:05.413Z,26.25
2023-04-20T12:32:32.102Z,23.88
2023-04-20T12:34:58.635Z,24.75
2023-04-20T12:37:24.925Z,24.75
2023-04-20T12:39:51.402Z,24.80
2023-04-20T12:42:17.977Z,24.02
2023-04-20T12:44:44.495Z,21.55
2023-04-20T12:47:11.324Z,22.38
2023-04-20T12:49:37.753Z,21.30
2023-04-20T12:52:05.717Z,21.75
2023-04-20T12:54:34.083Z,21.52
2023-04-20T12:57:00.418Z,22.45
2023-04-20T12:59:26.832Z,22.58
2023-04-20T13:01:53.236Z,21.10
2023-04-20T13:04:20.006Z,19.15
2023-04-20T13:06:46.796Z,19.58
2023-04-20T13:09:13.698Z,18.25
2023-04-20T13:11:40.204Z,18.77
2023-04-20T13:14:06.634Z,19.42
2023-04-20T13:16:32.997Z,19.30
2023-04-20T13:18:59.837Z,18.38
2023-04-20T13:21:26.430Z,18.67
2023-04-20T13:23:54.726Z,19.40
2023-04-20T13:26:22.489Z,17.73
2023-04-20T13:28:48.898Z,18.05
2023-04-20T13:31:15.284Z,17.55
2023-04-20T13:33:41.735Z,18.40
2023-04-20T13:36:08.297Z,17.70
2023-04-20T13:38:34.708Z,17.45
2023-04-20T13:41:01.072Z,18.02
2023-04-20T13:43:27.737Z,16.77
2023-04-20T13:45:54.366Z,16.80
2023-04-20T13:48:21.014Z,17.20
2023-04-20T13:50:47.820Z,16.05
2023-04-20T13:53:14.266Z,16.77
2023-04-20T13:55:40.883Z,16.80
2023-04-20T13:58:07.378Z,16.77
2023-04-20T14:00:34.860Z,17.42
2023-04-20T14:03:01.796Z,14.90
2023-04-20T14:05:28.689Z,15.68
2023-04-20T14:07:55.332Z,15.45
2023-04-20T14:10:21.694Z,16.45
2023-04-20T14:12:48.346Z,16.25
2023-04-20T14:15:14.966Z,16.67
2023-04-20T14:17:41.341Z,16.95
2023-04-20T14:20:07.704Z,15.60
2023-04-20T14:22:34.075Z,14.90
2023-04-20T14:25:00.405Z,16.45
2023-04-20T14:27:27.184Z,15.95
2023-04-20T14:29:53.633Z,15.55
2023-04-20T14:32:20.651Z,15.43
2023-04-20T14:34:47.030Z,15.10
2023-04-20T14:37:13.882Z,15.40
2023-04-20T14:39:40.215Z,15.88
2023-04-20T14:42:06.670Z,16.13
2023-04-20T14:44:33.322Z,14.75
2023-04-20T14:47:00.017Z,15.27
2023-04-20T14:49:26.761Z,14.93
2023-04-20T14:51:53.153Z,15.07
2023-04-20T14:54:19.792Z,15.15
2023-04-20T14:56:46.285Z,15.90
2023-04-20T14:59:12.748Z,15.68
2023-04-20T15:01:43.420Z,14.65
2023-04-20T15:04:18.079Z,14.52
2023-04-20T15:06:44.828Z,16.08
2023-04-20T15:09:11.243Z,14.70
2023-04-20T15:11:38.101Z,14.63
2023-04-20T15:14:04.670Z,14.57
2023-04-20T15:16:31.460Z,14.98
2023-04-20T15:18:58.017Z,15.95
2023-04-20T15:21:24.515Z,14.10
2023-04-20T15:23:51.130Z,14.45
2023-04-20T15:26:17.616Z,15.02
2023-04-20T15:28:43.905Z,15.35
2023-04-20T15:31:10.409Z,15.07
2023-04-20T15:33:36.782Z,13.95
2023-04-20T15:36:03.558Z,14.65
2023-04-20T15:38:29.845Z,15.10
2023-04-20T15:40:56.328Z,14.00
2023-04-20T15:43:22.697Z,13.35
2023-04-20T15:45:49.141Z,14.30
2023-04-20T15:48:15.548Z,13.20
2023-04-20T15:50:42.546Z,14.30
2023-04-20T15:53:08.857Z,13.70
2023-04-20T15:55:35.635Z,13.80
2023-04-20T15:58:02.048Z,14.32
2023-04-20T16:00:28.564Z,14.02
2023-04-20T16:02:55.448Z,13.77
2023-04-20T16:05:21.941Z,13.93
2023-04-20T16:07:48.663Z,14.18
2023-04-20T16:10:15.409Z,12.98
2023-04-20T16:12:41.740Z,13.90
2023-04-20T16:15:08.108Z,13.77
2023-04-20T16:17:35.115Z,13.77
2023-04-20T16:20:01.514Z,13.40
2023-04-20T16:22:28.095Z,13.75
2023-04-20T16:24:54.508Z,14.15
2023-04-20T16:27:20.887Z,13.73
2023-04-20T16:29:47.319Z,13.82
2023-04-20T16:32:13.784Z,13.50
2023-04-20T16:34:40.176Z,13.27
2023-04-20T16:37:06.968Z,13.80
2023-04-20T16:39:33.457Z,13.60
2023-04-20T16:41:59.799Z,13.23
2023-04-20T16:44:26.928Z,13.50
2023-04-20T16:46:53.372Z,13.82
2023-04-20T16:49:19.852Z,12.18
2023-04-20T16:51:46.405Z,13.48
2023-04-20T16:54:13.238Z,12.57
2023-04-20T16:56:39.599Z,12.75
2023-04-20T16:59:05.975Z,12.00
2023-04-20T17:01:32.465Z,12.57
2023-04-20T17:03:59.551Z,13.07
2023-04-20T17:06:26.675Z,12.10
2023-04-20T17:08:53.278Z,12.55
2023-04-20T17:11:20.058Z,12.05
2023-04-20T17:13:46.894Z,12.93
2023-04-20T17:16:13.307Z,12.40
2023-04-20T17:18:41.638Z,13.20
2023-04-20T17:21:08.514Z,13.05
2023-04-20T17:23:34.875Z,12.02
2023-04-20T17:26:01.285Z,12.40
2023-04-20T17:28:27.664Z,12.85
2023-04-20T17:30:54.244Z,11.80
2023-04-20T17:33:20.615Z,12.52
2023-04-20T17:35:47.110Z,390.05
2023-04-20T17:38:13.857Z,308.40
2023-04-20T17:40:40.685Z,157.60
2023-04-20T17:43:07.674Z,137.95
2023-04-20T17:45:34.123Z,131.27
2023-04-20T17:48:01.192Z,124.30
2023-04-20T17:50:27.679Z,135.40
2023-04-20T17:52:54.023Z,288.83
2023-04-20T17:55:20.856Z,258.60
2023-04-20T17:57:47.213Z,240.30
2023-04-20T18:00:13.828Z,219.88
2023-04-20T18:02:40.378Z,218.63
2023-04-20T18:05:07.464Z,204.80
2023-04-20T18:07:34.328Z,196.68
2023-04-20T18:10:01.701Z,167.88
2023-04-20T18:12:28.617Z,147.80
2023-04-20T18:14:55.142Z,139.18
2023-04-20T18:17:21.652Z,129.85
2023-04-20T18:19:48.540Z,157.50
2023-04-20T18:22:14.974Z,285.33
2023-04-20T18:24:41.521Z,261.35
2023-04-20T18:27:08.420Z,243.30
2023-04-20T18:29:34.819Z,228.05
2023-04-20T18:32:01.508Z,217.52
2023-04-20T18:34:28.231Z,209.60
2023-04-20T18:36:55.070Z,201.63
2023-04-20T18:39:21.518Z,196.80
2023-04-20T18:41:48.104Z,183.57
2023-04-20T18:44:14.941Z,175.30
2023-04-20T18:46:41.589Z,173.55
2023-04-20T18:49:08.057Z,227.70
2023-04-20T18:51:34.550Z,309.42
2023-04-20T18:54:01.106Z,308.00
2023-04-20T18:56:27.570Z,306.42
2023-04-20T18:58:54.337Z,293.08
2023-04-20T19:01:21.308Z,281.67
2023-04-20T19:03:48.297Z,280.17
2023-04-20T19:06:14.867Z,265.67
2023-04-20T19:08:41.560Z,254.63
2023-04-20T19:11:08.662Z,250.63
2023-04-20T19:13:35.092Z,247.55
2023-04-20T19:16:01.765Z,237.10
2023-04-20T19:18:28.219Z,228.57
2023-04-20T19:20:54.867Z,227.10
2023-04-20T19:23:21.731Z,216.48
2023-04-20T19:25:48.400Z,211.93
2023-04-20T19:28:15.065Z,207.23
2023-04-20T19:30:42.939Z,202.90
2023-04-20T19:33:09.436Z,193.93
2023-04-20T19:35:35.959Z,192.32
2023-04-20T19:38:02.406Z,378.98
2023-04-20T19:40:29.071Z,441.33
2023-04-20T19:42:56.188Z,373.65
2023-04-20T19:45:22.680Z,353.02
2023-04-20T19:47:49.184Z,345.92
2023-04-20T19:50:15.729Z,329.25
2023-04-20T19:52:42.304Z,323.17
2023-04-20T19:55:08.961Z,315.95
2023-04-20T19:57:35.543Z,309.30
2023-04-20T20:00:02.024Z,296.58
2023-04-20T20:02:29.454Z,292.15
2023-04-20T20:04:56.011Z,283.48
2023-04-20T20:07:23.186Z,427.23
2023-04-20T20:09:50.847Z,505.13
2023-04-20T20:12:17.936Z,430.63
2023-04-20T20:14:44.394Z,408.88
2023-04-20T20:17:10.918Z,395.58
2023-04-20T20:19:38.218Z,380.70
2023-04-20T20:22:04.769Z,374.08
2023-04-20T20:24:31.781Z,367.88
2023-04-20T20:26:58.257Z,349.80
2023-04-20T20:29:24.738Z,341.40
2023-04-20T20:31:51.622Z,328.35
2023-04-20T20:34:18.742Z,326.67
2023-04-20T20:36:45.397Z,319.20
2023-04-20T20:39:11.850Z,315.05
2023-04-20T20:41:38.815Z,307.42
2023-04-20T20:44:05.466Z,439.38
2023-04-20T20:46:32.785Z,529.72
2023-04-20T20:49:00.944Z,461.88
2023-04-20T20:51:28.104Z,443.52
2023-04-20T20:53:54.661Z,422.98
2023-04-20T20:56:21.412Z,422.83
2023-04-20T20:58:48.247Z,407.60
2023-04-20T21:01:15.464Z,401.25
2023-04-20T21:03:42.476Z,387.90
2023-04-20T21:06:09.664Z,557.53
2023-04-20T21:08:36.159Z,525.20
2023-04-20T21:11:03.061Z,508.48
2023-04-20T21:13:29.485Z,496.85
2023-04-20T21:15:56.389Z,483.35
2023-04-20T21:18:22.811Z,475.27
2023-04-20T21:20:49.912Z,463.02
2023-04-20T21:23:16.438Z,448.67
2023-04-20T21:25:42.914Z,450.83
2023-04-20T21:28:09.332Z,613.45
2023-04-20T21:30:35.832Z,592.75
2023-04-20T21:33:02.386Z,568.05
2023-04-20T21:35:28.954Z,556.30
2023-04-20T21:37:55.733Z,531.58
2023-04-20T21:40:22.203Z,571.13
2023-04-20T21:42:48.704Z,635.00
2023-04-20T21:45:15.130Z,663.53
2023-04-20T21:47:41.861Z,627.47
2023-04-20T21:50:08.427Z,628.15
2023-04-20T21:52:35.367Z,763.58
2023-04-20T21:55:01.911Z,737.60
2023-04-20T21:57:29.148Z,676.10
2023-04-20T21:59:55.544Z,664.25
2023-04-20T22:02:22.331Z,664.53
2023-04-20T22:04:49.325Z,656.72
2023-04-20T22:07:18.215Z,653.88
2023-04-20T22:09:44.636Z,641.67
2023-04-20T22:12:11.059Z,646.22
2023-04-20T22:14:37.424Z,635.85
2023-04-20T22:17:04.259Z,631.00
2023-04-20T22:19:30.641Z,630.92
2023-04-20T22:21:57.043Z,625.70
2023-04-20T22:24:23.598Z,621.25
2023-04-20T22:26:50.084Z,610.45
2023-04-20T22:29:16.993Z,606.42
2023-04-20T22:31:43.944Z,608.80
2023-04-20T22:34:10.433Z,603.53
2023-04-20T22:36:36.900Z,597.63
2023-04-20T22:39:04.837Z,603.30
2023-04-20T22:41:31.210Z,593.10
2023-04-20T22:43:57.582Z,592.42
2023-04-20T22:46:24.019Z,586.65
2023-04-20T22:48:50.503Z,593.90
2023-04-20T22:51:16.899Z,590.45
2023-04-20T22:53:43.416Z,576.92
2023-04-20T22:56:10.089Z,565.20
2023-04-20T22:58:36.509Z,569.53
2023-04-20T23:01:03.293Z,569.50
2023-04-20T23:03:29.956Z,575.03
2023-04-20T23:05:56.601Z,558.33
2023-04-20T23:08:23.102Z,559.85
2023-04-20T23:10:49.538Z,555.10
2023-04-20T23:13:16.231Z,545.80
2023-04-20T23:15:42.877Z,539.45
2023-04-20T23:18:09.309Z,540.25
2023-04-20T23:20:35.820Z,531.83
2023-04-20T23:23:02.233Z,536.45
2023-04-20T23:25:28.744Z,533.42
2023-04-20T23:27:55.199Z,528.33
2023-04-20T23:30:21.783Z,520.90
2023-04-20T23:32:48.272Z,509.13
2023-04-20T23:35:14.736Z,520.75
2023-04-20T23:37:41.098Z,506.70
2023-04-20T23:40:07.800Z,506.83
2023-04-20T23:42:34.251Z,508.50
2023-04-20T23:45:00.733Z,500.10
2023-04-20T23:47:27.501Z,502.88
2023-04-20T23:49:53.942Z,491.38
2023-04-20T23:52:20.418Z,487.27
2023-04-20T23:54:46.858Z,489.83
2023-04-20T23:57:13.535Z,496.50
2023-04-20T23:59:40.188Z,479.90
